Time;durP1;ratioP1;P1;durP2;ratioP2;P2;SDS_P1;SDS_P2;PMS_P1;PMS_P2;Temp;Humidity;BMP_temperature;BMP_pressure;BME280_temperature;BME280_humidity;BME280_pressure;Samples;Min_cycle;Max_cycle;Signal;HPM_P1;HPM_P2
2021/12/03 00:01:52;;;;;;;;;;;;;;;16.27;46.58;100898.25;4966477;28;19918;-48
2021/12/03 00:04:17;;;;;;;;;;;;;;;16.27;46.73;100897.38;4964117;29;19986;-46
2021/12/03 00:06:43;;;;;;;;;;;;;;;16.25;46.65;100894.88;4966309;28;19922;-46
2021/12/03 00:09:08;;;;;;;;;;;;;;;16.23;46.77;100900.41;4966192;29;19914;-49
2021/12/03 00:11:33;;;;;;;;;;;;;;;16.23;46.71;100896.88;4960762;28;19915;-44
2021/12/03 00:13:58;;;;;;;;;;;;;;;16.21;46.72;100899.69;4958473;29;19921;-45
2021/12/03 00:16:24;;;;;;;;;;;;;;;16.20;46.68;100892.66;4965991;28;19946;-47
2021/12/03 00:18:49;;;;;;;;;;;;;;;16.19;46.70;100893.66;4966164;28;19915;-46
2021/12/03 00:21:15;;;;;;;;;;;;;;;16.18;46.60;100885.72;4965694;28;20307;-46
2021/12/03 00:23:40;;;;;;;;;;;;;;;16.18;46.72;100893.78;4966253;28;19922;-46
2021/12/03 00:26:06;;;;;;;;;;;;;;;16.16;46.57;100895.78;4965895;28;19914;-45
2021/12/03 00:28:31;;;;;;;;;;;;;;;16.16;46.64;100895.78;4956023;29;19918;-46
2021/12/03 00:30:56;;;;;;;;;;;;;;;16.15;46.67;100903.00;4965276;28;19914;-45
2021/12/03 00:33:21;;;;;;;;;;;;;;;16.15;46.67;100907.50;4965965;29;19973;-47
2021/12/03 00:35:47;;;;;;;;;;;;;;;16.13;46.59;100907.66;4965673;28;19923;-52
2021/12/03 00:38:12;;;;;;;;;;;;;;;16.13;46.54;100899.59;4978146;28;20379;-50
2021/12/03 00:40:39;;;;;;;;;;;;;;;16.13;46.61;100909.50;4965940;29;20577;-52
2021/12/03 00:43:04;;;;;;;;;;;;;;;16.12;46.47;100908.66;4965817;29;20052;-48
2021/12/03 00:45:31;;;;;;;;;;;;;;;16.12;46.61;100905.13;4965106;28;19922;-48
2021/12/03 00:47:56;;;;;;;;;;;;;;;16.12;46.60;100918.53;4965702;28;19951;-47
2021/12/03 00:50:22;;;;;;;;;;;;;;;16.11;46.60;100914.16;4965475;28;19914;-51
2021/12/03 00:52:48;;;;;;;;;;;;;;;16.10;46.53;100912.47;4965751;28;19974;-50
2021/12/03 00:55:13;;;;;;;;;;;;;;;16.08;46.43;100907.25;4965351;28;20022;-51
2021/12/03 00:57:38;;;;;;;;;;;;;;;16.06;46.47;100903.91;4965621;28;19920;-48
2021/12/03 01:00:08;;;;;;;;;;;;;;;16.06;46.43;100897.69;4964748;29;19921;-51
2021/12/03 01:02:33;;;;;;;;;;;;;;;16.04;46.56;100892.47;4963724;28;19923;-53
2021/12/03 01:04:58;;;;;;;;;;;;;;;16.05;46.48;100893.31;4959872;29;19954;-50
2021/12/03 01:07:23;;;;;;;;;;;;;;;16.03;46.50;100896.13;4965620;28;19922;-52
2021/12/03 01:09:48;;;;;;;;;;;;;;;16.02;46.51;100907.88;4965386;28;20368;-52
2021/12/03 01:12:13;;;;;;;;;;;;;;;16.01;46.46;100900.78;4965518;28;19946;-50
2021/12/03 01:14:39;;;;;;;;;;;;;;;16.00;46.54;100899.13;4965180;29;19954;-51
2021/12/03 01:17:05;;;;;;;;;;;;;;;15.99;46.58;100897.44;4965496;28;19914;-50
2021/12/03 01:19:30;;;;;;;;;;;;;;;15.97;46.45;100902.97;4965323;29;19977;-51
2021/12/03 01:21:55;;;;;;;;;;;;;;;15.96;46.54;100901.25;4964485;29;19915;-45
2021/12/03 01:24:21;;;;;;;;;;;;;;;15.96;46.46;100906.59;4965305;28;19939;-45
2021/12/03 01:26:46;;;;;;;;;;;;;;;15.95;46.58;100907.63;4965955;28;19918;-45
2021/12/03 01:29:11;;;;;;;;;;;;;;;15.94;46.45;100905.09;4971069;28;19926;-46
2021/12/03 01:31:37;;;;;;;;;;;;;;;15.94;46.58;100911.28;4967502;28;19922;-45
2021/12/03 01:34:04;;;;;;;;;;;;;;;15.94;46.58;100907.78;4965450;28;20096;-52
2021/12/03 01:36:29;;;;;;;;;;;;;;;15.92;46.45;100905.22;4965145;28;19922;-46
2021/12/03 01:38:55;;;;;;;;;;;;;;;15.92;46.45;100912.41;4965355;29;19950;-46
2021/12/03 01:41:20;;;;;;;;;;;;;;;15.91;46.43;100903.53;4965274;29;20395;-48
2021/12/03 01:43:45;;;;;;;;;;;;;;;15.90;46.53;100907.22;4965018;28;19922;-46
2021/12/03 01:46:11;;;;;;;;;;;;;;;15.90;46.47;100920.63;4965015;28;19918;-47
2021/12/03 01:48:36;;;;;;;;;;;;;;;15.90;46.51;100923.31;4965126;28;19918;-47
2021/12/03 01:51:02;;;;;;;;;;;;;;;15.89;46.52;100915.44;4965105;28;19953;-48
2021/12/03 01:53:28;;;;;;;;;;;;;;;15.89;46.41;100912.75;4965378;28;19922;-47
2021/12/03 01:55:55;;;;;;;;;;;;;;;15.88;46.40;100906.50;4964976;28;19928;-45
2021/12/03 01:58:21;;;;;;;;;;;;;;;15.87;46.36;100904.81;4964948;29;19915;-50
2021/12/03 02:00:47;;;;;;;;;;;;;;;15.87;46.32;100902.16;4965853;28;19925;-46
2021/12/03 02:03:16;;;;;;;;;;;;;;;15.87;46.35;100902.16;4977163;28;19915;-46
2021/12/03 02:05:42;;;;;;;;;;;;;;;15.86;46.38;100903.16;4966091;28;20027;-47
2021/12/03 02:08:07;;;;;;;;;;;;;;;15.86;46.37;100910.34;4955129;29;19922;-49
2021/12/03 02:10:33;;;;;;;;;;;;;;;15.87;46.29;100904.00;4968427;29;20530;-49
2021/12/03 02:12:58;;;;;;;;;;;;;;;15.86;46.29;100908.50;4968572;28;19915;-51
2021/12/03 02:15:23;;;;;;;;;;;;;;;15.86;46.23;100911.19;4968034;29;19941;-47
2021/12/03 02:17:48;;;;;;;;;;;;;;;15.85;46.30;100914.03;4980740;28;20472;-50
2021/12/03 02:20:14;;;;;;;;;;;;;;;15.84;46.41;100907.78;4978899;28;19925;-47
2021/12/03 02:22:40;;;;;;;;;;;;;;;15.84;46.25;100905.13;4968463;28;19985;-49
2021/12/03 02:25:06;;;;;;;;;;;;;;;15.85;46.16;100916.72;4968209;28;19938;-49
2021/12/03 02:27:31;;;;;;;;;;;;;;;15.84;46.33;100912.31;4968408;28;19944;-47
2021/12/03 02:29:57;;;;;;;;;;;;;;;15.83;46.26;100905.28;4968510;28;19938;-52
2021/12/03 02:32:22;;;;;;;;;;;;;;;15.82;46.21;100909.78;4968057;28;19962;-50
2021/12/03 02:34:47;;;;;;;;;;;;;;;15.81;46.28;100908.13;4969377;28;19926;-48
2021/12/03 02:37:12;;;;;;;;;;;;;;;15.80;46.26;100906.44;4980328;28;19919;-49
2021/12/03 02:39:37;;;;;;;;;;;;;;;15.79;46.32;100915.44;4967917;28;19977;-47
2021/12/03 02:42:03;;;;;;;;;;;;;;;15.80;46.33;100910.94;4963085;28;19930;-47
2021/12/03 02:44:28;;;;;;;;;;;;;;;15.80;46.22;100911.78;4957909;29;19953;-50
2021/12/03 02:46:53;;;;;;;;;;;;;;;15.80;46.25;100902.88;4966244;29;19925;-48
2021/12/03 02:49:18;;;;;;;;;;;;;;;15.80;46.25;100903.75;4968146;28;19958;-44
2021/12/03 02:51:43;;;;;;;;;;;;;;;15.80;46.25;100900.19;4967643;28;19926;-49
2021/12/03 02:54:09;;;;;;;;;;;;;;;15.79;46.17;100894.00;4967853;28;19915;-46
2021/12/03 02:56:34;;;;;;;;;;;;;;;15.80;46.19;100900.19;4967678;28;19925;-47
2021/12/03 02:58:59;;;;;;;;;;;;;;;15.80;46.23;100894.84;4967182;28;19922;-51
2021/12/03 03:01:25;;;;;;;;;;;;;;;15.80;46.18;100895.72;4967452;29;20173;-48
2021/12/03 03:03:50;;;;;;;;;;;;;;;15.80;46.25;100900.19;4966295;28;19918;-46
2021/12/03 03:06:15;;;;;;;;;;;;;;;15.79;46.17;100904.72;4967370;28;19922;-47
2021/12/03 03:08:42;;;;;;;;;;;;;;;15.79;46.20;100887.78;4980576;28;20371;-46
2021/12/03 03:11:08;;;;;;;;;;;;;;;15.77;46.27;100893.31;4967347;29;19942;-48
2021/12/03 03:13:34;;;;;;;;;;;;;;;15.77;46.15;100890.63;4967501;28;19926;-47
2021/12/03 03:15:59;;;;;;;;;;;;;;;15.77;46.19;100889.78;4966592;28;19915;-47
2021/12/03 03:18:25;;;;;;;;;;;;;;;15.77;46.18;100890.63;4966114;28;19915;-49
2021/12/03 03:20:51;;;;;;;;;;;;;;;15.76;46.11;100883.59;4967065;28;20522;-50
2021/12/03 03:23:17;;;;;;;;;;;;;;;15.76;46.22;100875.56;4967361;28;19914;-50
2021/12/03 03:25:42;;;;;;;;;;;;;;;15.74;46.13;100872.16;4967082;28;19915;-46
2021/12/03 03:28:08;;;;;;;;;;;;;;;15.74;46.08;100873.00;4965839;29;19930;-44
2021/12/03 03:30:34;;;;;;;;;;;;;;;15.73;46.08;100871.31;4966239;28;20054;-47
2021/12/03 03:32:59;;;;;;;;;;;;;;;15.73;46.09;100871.31;4966848;28;19920;-47
2021/12/03 03:35:24;;;;;;;;;;;;;;;15.73;46.19;100874.00;4965322;29;19929;-47
2021/12/03 03:37:49;;;;;;;;;;;;;;;15.73;46.10;100873.16;4967036;28;19949;-48
2021/12/03 03:40:14;;;;;;;;;;;;;;;15.73;46.10;100867.81;4966874;28;19975;-48
2021/12/03 03:42:39;;;;;;;;;;;;;;;15.73;46.01;100865.97;4966809;29;19938;-46
2021/12/03 03:45:07;;;;;;;;;;;;;;;15.73;45.96;100854.41;4966223;28;19938;-46
2021/12/03 03:47:33;;;;;;;;;;;;;;;15.73;45.95;100846.34;4966493;28;19918;-49
2021/12/03 03:49:58;;;;;;;;;;;;;;;15.73;46.06;100838.31;4966666;29;19993;-47
2021/12/03 03:52:23;;;;;;;;;;;;;;;15.73;46.09;100839.16;4966805;28;20021;-46
2021/12/03 03:54:48;;;;;;;;;;;;;;;15.72;45.91;100844.69;4966941;28;19915;-48
2021/12/03 03:57:13;;;;;;;;;;;;;;;15.72;45.97;100839.31;4962423;29;19988;-44
2021/12/03 03:59:39;;;;;;;;;;;;;;;15.71;45.91;100835.75;4956526;29;19969;-48
2021/12/03 04:02:04;;;;;;;;;;;;;;;15.70;45.90;100828.72;4966352;28;20354;-49
2021/12/03 04:04:29;;;;;;;;;;;;;;;15.69;45.97;100821.69;4966491;28;19942;-49
2021/12/03 04:06:54;;;;;;;;;;;;;;;15.69;46.05;100826.19;4960523;29;19918;-47
2021/12/03 04:09:19;;;;;;;;;;;;;;;15.70;46.02;100828.72;4966273;29;19914;-49
2021/12/03 04:11:44;;;;;;;;;;;;;;;15.69;46.03;100837.75;4966151;28;19921;-50
2021/12/03 04:14:10;;;;;;;;;;;;;;;15.68;45.92;100830.72;4964540;29;19977;-51
2021/12/03 04:16:35;;;;;;;;;;;;;;;15.69;45.95;100831.56;4965902;28;19986;-47
2021/12/03 04:19:00;;;;;;;;;;;;;;;15.69;46.00;100828.88;4966232;28;19921;-46
2021/12/03 04:21:25;;;;;;;;;;;;;;;15.69;45.95;100826.19;4970746;28;19941;-46
2021/12/03 04:23:51;;;;;;;;;;;;;;;15.69;45.96;100829.72;4972919;28;19958;-48
2021/12/03 04:26:16;;;;;;;;;;;;;;;15.69;45.93;100839.59;4965984;29;19914;-48
2021/12/03 04:28:41;;;;;;;;;;;;;;;15.69;45.88;100839.59;4965462;28;19918;-52
2021/12/03 04:31:06;;;;;;;;;;;;;;;15.67;45.97;100826.38;4965518;28;19942;-48
2021/12/03 04:33:32;;;;;;;;;;;;;;;15.68;45.89;100827.19;4965976;28;19919;-46
2021/12/03 04:35:57;;;;;;;;;;;;;;;15.67;45.85;100831.72;4965668;29;19950;-48
2021/12/03 04:38:22;;;;;;;;;;;;;;;15.66;45.85;100827.34;4965628;29;19922;-49
2021/12/03 04:40:47;;;;;;;;;;;;;;;15.67;45.88;100830.84;4964685;29;19921;-47
2021/12/03 04:43:12;;;;;;;;;;;;;;;15.67;45.96;100836.22;4965618;28;19946;-50
2021/12/03 04:45:38;;;;;;;;;;;;;;;15.67;45.88;100828.19;4965374;29;19922;-47
2021/12/03 04:48:03;;;;;;;;;;;;;;;15.67;45.83;100828.19;4972774;28;20429;-47
2021/12/03 04:50:29;;;;;;;;;;;;;;;15.66;45.81;100823.81;4965918;28;19915;-45
2021/12/03 04:52:54;;;;;;;;;;;;;;;15.66;45.83;100827.34;4965884;28;19937;-48
2021/12/03 04:55:20;;;;;;;;;;;;;;;15.66;45.82;100826.50;4965366;28;19915;-48
2021/12/03 04:57:45;;;;;;;;;;;;;;;15.65;45.79;100830.19;4965468;28;19921;-47
2021/12/03 05:00:16;;;;;;;;;;;;;;;15.64;45.82;100825.78;4964564;28;19950;-48
2021/12/03 05:02:41;;;;;;;;;;;;;;;15.65;45.79;100828.34;4965546;28;19946;-49
2021/12/03 05:05:07;;;;;;;;;;;;;;;15.65;45.93;100827.50;4965143;29;19915;-46
2021/12/03 05:10:03;;;;;;;;;;;;;;;15.64;45.81;100810.56;4971975;28;19926;-46
2021/12/03 05:12:28;;;;;;;;;;;;;;;15.65;45.89;100819.44;4963598;28;19926;-46
2021/12/03 05:14:54;;;;;;;;;;;;;;;15.65;45.89;100819.44;4964451;28;19970;-46
2021/12/03 05:17:19;;;;;;;;;;;;;;;15.65;45.82;100812.25;4965621;29;19930;-48
2021/12/03 05:19:44;;;;;;;;;;;;;;;15.65;45.74;100814.94;4965247;29;19914;-44
2021/12/03 05:22:09;;;;;;;;;;;;;;;15.66;45.81;100802.38;4965635;28;19929;-47
2021/12/03 05:24:34;;;;;;;;;;;;;;;15.66;45.82;100810.41;4965383;29;20390;-45
2021/12/03 05:26:59;;;;;;;;;;;;;;;15.65;45.91;100804.22;4964228;29;20277;-45
2021/12/03 05:29:25;;;;;;;;;;;;;;;15.66;45.92;100799.69;4964550;29;19923;-46
2021/12/03 05:31:50;;;;;;;;;;;;;;;15.66;45.80;100807.72;4965095;28;19922;-50
2021/12/03 05:34:16;;;;;;;;;;;;;;;15.66;45.88;100808.56;4963902;28;19946;-44
2021/12/03 05:36:42;;;;;;;;;;;;;;;15.67;45.93;100818.31;4969915;28;19926;-49
2021/12/03 05:39:07;;;;;;;;;;;;;;;15.67;45.91;100817.44;4967546;28;20325;-48
2021/12/03 05:41:33;;;;;;;;;;;;;;;15.67;45.89;100829.03;4967600;28;19919;-46
2021/12/03 05:43:58;;;;;;;;;;;;;;;15.67;45.91;100826.38;4973054;28;19918;-48
2021/12/03 05:46:23;;;;;;;;;;;;;;;15.67;46.03;100820.13;4973217;28;19954;-46
2021/12/03 05:48:48;;;;;;;;;;;;;;;15.67;46.10;100815.66;4966743;28;19953;-45
2021/12/03 05:51:13;;;;;;;;;;;;;;;15.67;46.04;100807.59;4968558;28;19914;-47
2021/12/03 05:53:39;;;;;;;;;;;;;;;15.69;46.09;100807.44;4967476;29;19922;-50
2021/12/03 05:56:04;;;;;;;;;;;;;;;15.70;46.24;100811.81;4968586;28;19981;-45
2021/12/03 05:58:29;;;;;;;;;;;;;;;15.71;46.24;100803.59;4964230;28;19933;-48
2021/12/03 06:00:54;;;;;;;;;;;;;;;15.73;46.21;100803.47;4967561;28;19980;-46
2021/12/03 06:03:19;;;;;;;;;;;;;;;15.74;46.21;100807.81;4970377;28;19926;-47
2021/12/03 06:05:45;;;;;;;;;;;;;;;15.74;46.22;100805.16;4970490;28;19945;-46
2021/12/03 06:08:10;;;;;;;;;;;;;;;15.76;46.17;100805.84;4968091;28;19929;-46
2021/12/03 06:10:35;;;;;;;;;;;;;;;15.76;46.38;100805.84;4973421;28;20013;-49
2021/12/03 06:13:00;;;;;;;;;;;;;;;15.77;46.25;100802.19;4971482;28;19915;-46
2021/12/03 06:15:26;;;;;;;;;;;;;;;15.78;46.24;100811.91;4969874;28;19915;-47
2021/12/03 06:17:51;;;;;;;;;;;;;;;15.79;46.35;100810.06;4962308;28;19954;-48
2021/12/03 06:20:17;;;;;;;;;;;;;;;15.79;46.38;100802.00;4960996;29;19922;-48
2021/12/03 06:22:42;;;;;;;;;;;;;;;15.80;46.37;100806.38;4964615;28;19917;-46
2021/12/03 06:25:08;;;;;;;;;;;;;;;15.80;46.40;100798.34;4958366;29;19914;-47
2021/12/03 06:27:33;;;;;;;;;;;;;;;15.80;46.42;100796.53;4962496;28;20047;-46
2021/12/03 06:29:59;;;;;;;;;;;;;;;15.81;46.47;100789.31;4955553;28;20446;-47
2021/12/03 06:32:24;;;;;;;;;;;;;;;15.83;46.31;100798.88;4963218;29;19978;-50
2021/12/03 06:34:49;;;;;;;;;;;;;;;15.83;46.48;100798.88;4956181;28;20014;-44
2021/12/03 06:37:14;;;;;;;;;;;;;;;15.83;46.45;100796.19;4964532;28;20365;-49
2021/12/03 06:39:39;;;;;;;;;;;;;;;15.84;46.48;100791.69;4966240;29;19914;-46
2021/12/03 06:42:05;;;;;;;;;;;;;;;15.85;46.41;100793.38;4967738;28;19914;-45
2021/12/03 06:44:30;;;;;;;;;;;;;;;15.87;46.36;100796.75;4965482;28;19922;-47
2021/12/03 06:46:55;;;;;;;;;;;;;;;15.88;46.48;100793.06;4967560;28;19929;-47
2021/12/03 06:49:23;;;;;;;;;;;;;;;15.92;46.49;100791.75;4958070;28;20015;-45
2021/12/03 06:51:50;;;;;;;;;;;;;;;15.98;46.42;100794.69;4963829;28;20434;-45
2021/12/03 06:54:24;;;;;;;;;;;;;;;16.02;46.37;100791.72;4965256;28;19946;-43
2021/12/03 06:56:51;;;;;;;;;;;;;;;16.06;46.09;100791.25;4964181;28;19926;-47
2021/12/03 06:59:17;;;;;;;;;;;;;;;16.09;46.15;100796.28;4964562;28;19921;-46
2021/12/03 07:01:43;;;;;;;;;;;;;;;16.11;46.05;100786.28;4965042;28;19918;-42
2021/12/03 07:04:08;;;;;;;;;;;;;;;16.15;46.01;100792.19;4965326;28;19926;-45
2021/12/03 07:06:33;;;;;;;;;;;;;;;16.18;46.01;100800.75;4964048;28;19926;-44
2021/12/03 07:08:58;;;;;;;;;;;;;;;16.20;45.92;100784.50;4961183;28;20095;-45
2021/12/03 07:11:23;;;;;;;;;;;;;;;16.22;45.93;100788.69;4964942;28;20315;-45
2021/12/03 07:13:49;;;;;;;;;;;;;;;16.24;45.79;100780.53;4964505;28;19922;-43
2021/12/03 07:16:14;;;;;;;;;;;;;;;16.25;45.90;100783.03;4964438;28;19918;-49
2021/12/03 07:18:39;;;;;;;;;;;;;;;16.27;45.79;100785.59;4967714;28;19914;-43
2021/12/03 07:21:04;;;;;;;;;;;;;;;16.29;45.82;100785.41;4964729;28;19921;-47
2021/12/03 07:23:29;;;;;;;;;;;;;;;16.31;45.81;100772.69;4968703;28;19973;-44
2021/12/03 07:25:56;;;;;;;;;;;;;;;16.32;45.69;100766.34;4964071;28;19929;-45
2021/12/03 07:28:21;;;;;;;;;;;;;;;16.34;45.74;100764.34;4966844;28;19922;-47
2021/12/03 07:30:46;;;;;;;;;;;;;;;16.35;45.63;100768.69;4962100;28;20391;-44
2021/12/03 07:33:14;;;;;;;;;;;;;;;16.37;45.69;100770.22;4962093;28;19977;-44
2021/12/03 07:35:39;;;;;;;;;;;;;;;16.39;45.70;100756.66;4963669;28;19933;-44
2021/12/03 07:38:04;;;;;;;;;;;;;;;16.41;45.73;100760.88;4963586;28;19914;-43
2021/12/03 07:40:30;;;;;;;;;;;;;;;16.44;45.99;100751.69;4965086;28;19953;-41
2021/12/03 07:42:55;;;;;;;;;;;;;;;16.46;45.84;100747.00;4961073;28;19983;-43
2021/12/03 07:45:20;;;;;;;;;;;;;;;16.49;45.82;100755.56;4963472;28;19922;-43
2021/12/03 07:47:46;;;;;;;;;;;;;;;16.52;45.83;100743.66;4964290;28;19919;-44
2021/12/03 07:50:12;;;;;;;;;;;;;;;16.56;45.64;100752.25;4964541;28;19930;-43
2021/12/03 07:52:37;;;;;;;;;;;;;;;16.58;45.64;100751.09;4964686;28;20531;-49
2021/12/03 07:55:03;;;;;;;;;;;;;;;16.61;45.54;100747.25;4963254;28;19930;-44
2021/12/03 07:57:28;;;;;;;;;;;;;;;16.63;45.53;100739.91;4963901;28;19915;-45
2021/12/03 07:59:53;;;;;;;;;;;;;;;16.64;45.41;100744.25;4963761;28;19939;-43
2021/12/03 08:02:19;;;;;;;;;;;;;;;16.65;45.67;100744.13;4964177;28;19939;-42
2021/12/03 08:04:44;;;;;;;;;;;;;;;16.66;45.37;100735.06;4962657;28;19962;-42
2021/12/03 08:07:09;;;;;;;;;;;;;;;16.69;45.31;100739.25;4963340;28;19973;-46
2021/12/03 08:09:34;;;;;;;;;;;;;;;16.69;45.24;100742.81;4962423;28;19919;-44
2021/12/03 08:11:59;;;;;;;;;;;;;;;16.71;45.41;100731.91;4964430;28;19922;-43
2021/12/03 08:14:25;;;;;;;;;;;;;;;16.72;45.39;100723.72;4963634;28;19915;-42
2021/12/03 08:16:50;;;;;;;;;;;;;;;16.73;45.23;100725.38;4960554;28;20603;-46
2021/12/03 08:19:15;;;;;;;;;;;;;;;16.74;45.22;100719.03;4962787;28;19922;-47
2021/12/03 08:21:40;;;;;;;;;;;;;;;16.77;45.28;100725.91;4963094;28;19986;-47
2021/12/03 08:24:05;;;;;;;;;;;;;;;16.79;45.18;100731.13;4962790;28;19919;-44
2021/12/03 08:26:32;;;;;;;;;;;;;;;16.81;45.14;100723.75;4963099;28;19937;-44
2021/12/03 08:28:57;;;;;;;;;;;;;;;16.83;45.12;100722.59;4963188;28;19914;-46
2021/12/03 08:31:22;;;;;;;;;;;;;;;16.86;45.09;100721.44;4963374;28;20001;-46
2021/12/03 08:33:48;;;;;;;;;;;;;;;16.88;45.03;100714.06;4964391;28;19985;-48
2021/12/03 08:36:13;;;;;;;;;;;;;;;16.88;45.06;100709.53;4960041;28;20054;-51
2021/12/03 08:38:38;;;;;;;;;;;;;;;16.90;45.00;100710.19;4960007;28;19919;-49
2021/12/03 08:41:04;;;;;;;;;;;;;;;16.91;44.86;100713.75;4963657;28;19914;-45
2021/12/03 08:43:29;;;;;;;;;;;;;;;16.92;44.93;100718.13;4964107;28;19919;-43
2021/12/03 08:45:55;;;;;;;;;;;;;;;16.92;44.91;100707.38;4962540;28;20001;-45
2021/12/03 08:48:22;;;;;;;;;;;;;;;16.93;44.92;100711.75;4963318;28;19982;-52
2021/12/03 08:56:15;;;;;;;;;;;;;;;16.95;45.01;100705.22;4960944;28;20000;-45
2021/12/03 08:58:40;;;;;;;;;;;;;;;16.97;44.69;100695.13;4963329;28;19914;-47
2021/12/03 09:01:08;;;;;;;;;;;;;;;16.99;44.87;100693.16;4965829;28;19918;-45
2021/12/03 09:03:33;;;;;;;;;;;;;;;17.01;44.69;100692.16;4962833;28;19918;-48
2021/12/03 09:05:58;;;;;;;;;;;;;;;17.03;44.59;100693.66;4961457;28;19918;-47
2021/12/03 09:08:23;;;;;;;;;;;;;;;17.06;44.63;100697.88;4963109;28;19978;-46
2021/12/03 09:10:48;;;;;;;;;;;;;;;17.07;44.62;100696.84;4963294;28;19915;-45
2021/12/03 09:13:14;;;;;;;;;;;;;;;17.10;44.33;100691.16;4963493;28;19914;-47
2021/12/03 09:15:44;;;;;;;;;;;;;;;17.13;44.40;100696.22;4965674;28;19984;-49
2021/12/03 09:20:50;;;;;;;;;;;;;;;17.14;44.13;100714.03;4967452;28;19938;-48
2021/12/03 09:23:41;;;;;;;;;;;;;;;17.15;44.06;100707.63;4966429;28;19918;-49
2021/12/03 09:26:14;;;;;;;;;;;;;;;17.14;43.91;100703.28;4966857;28;19918;-47
2021/12/03 09:28:41;;;;;;;;;;;;;;;17.14;44.06;100701.41;4965033;28;19946;-48
2021/12/03 09:31:09;;;;;;;;;;;;;;;17.15;43.97;100699.56;4965906;28;19918;-48
2021/12/03 09:33:36;;;;;;;;;;;;;;;17.16;44.25;100712.00;4965846;28;19929;-46
2021/12/03 09:36:03;;;;;;;;;;;;;;;17.17;44.32;100703.78;4966505;28;19934;-45
2021/12/03 09:38:32;;;;;;;;;;;;;;;17.18;44.32;100707.31;4964632;28;19961;-44
2021/12/03 09:41:12;;;;;;;;;;;;;;;17.18;44.24;100696.56;4962160;28;19966;-50
2021/12/03 09:43:39;;;;;;;;;;;;;;;17.18;44.42;100697.41;4951686;29;19918;-48
2021/12/03 09:46:27;;;;;;;;;;;;;;;17.18;44.32;100693.88;4965978;28;20360;-48
2021/12/03 09:51:34;;;;;;;;;;;;;;;17.17;44.44;100682.31;4967794;28;19915;-46
2021/12/03 09:56:43;;;;;;;;;;;;;;;17.18;44.30;100667.84;4963635;28;19921;-49
2021/12/03 10:01:52;;;;;;;;;;;;;;;17.19;44.41;100664.16;4975102;28;19962;-50
2021/12/03 10:15:03;;;;;;;;;;;;;;;17.23;44.47;100638.66;4965764;28;19914;-47
2021/12/03 10:20:27;;;;;;;;;;;;;;;17.27;44.28;100625.72;4961499;28;20034;-49
2021/12/03 10:26:30;;;;;;;;;;;;;;;17.31;44.35;100628.94;4962348;28;19918;-45
2021/12/03 10:36:56;;;;;;;;;;;;;;;17.37;43.93;100615.66;4964589;28;20575;-45
2021/12/03 10:47:14;;;;;;;;;;;;;;;17.39;43.99;100600.22;4967410;28;19922;-47
2021/12/03 10:49:58;;;;;;;;;;;;;;;17.40;44.10;100588.47;4966239;28;19925;-50
2021/12/03 10:52:30;;;;;;;;;;;;;;;17.41;43.86;100583.94;4965458;28;19922;-47
2021/12/03 10:58:25;;;;;;;;;;;;;;;17.42;43.91;100573.03;4916269;29;20407;-47
2021/12/03 11:12:16;;;;;;;;;;;;;;;17.45;43.40;100542.28;4923896;29;19915;-51
2021/12/03 11:25:29;;;;;;;;;;;;;;;17.45;43.88;100535.03;4917133;29;19930;-47
2021/12/03 11:28:23;;;;;;;;;;;;;;;17.46;43.70;100525.16;4918908;29;19970;-44
2021/12/03 11:38:53;;;;;;;;;;;;;;;17.45;43.71;100510.03;4963045;28;21197;-46
2021/12/03 11:42:03;;;;;;;;;;;;;;;17.44;43.74;100498.44;4963773;28;19918;-46
2021/12/03 12:04:15;;;;;;;;;;;;;;;17.49;44.27;100461.13;4963272;28;19934;-48
2021/12/03 12:15:30;;;;;;;;;;;;;;;17.60;44.13;100443.00;4962701;28;19930;-47
2021/12/03 12:40:47;;;;;;;;;;;;;;;17.74;43.73;100383.16;4964236;28;19926;-48
2021/12/03 13:10:40;;;;;;;;;;;;;;;17.85;43.65;100360.44;4968314;28;19950;-51
2021/12/03 13:24:06;;;;;;;;;;;;;;;17.84;43.69;100339.91;4966348;28;19915;-47
2021/12/03 13:44:30;;;;;;;;;;;;;;;17.86;43.65;100319.06;4968694;28;19918;-49
2021/12/03 14:32:12;;;;;;;;;;;;;;;17.69;43.55;100294.91;4966405;29;19925;-51
2021/12/03 14:33:46;;;;;;;;;;;;;;;17.67;43.65;100293.41;4959723;28;19986;-47
2021/12/03 14:37:55;;;;;;;;;;;;;;;17.64;43.70;100299.16;4962973;29;19997;-49
2021/12/03 14:40:53;;;;;;;;;;;;;;;17.62;43.66;100293.94;4967781;28;19999;-49
2021/12/03 14:46:08;;;;;;;;;;;;;;;17.60;43.73;100300.53;4973446;28;20065;-44
2021/12/03 14:56:48;;;;;;;;;;;;;;;17.57;43.89;100308.94;4964305;28;19926;-43
2021/12/03 14:59:19;;;;;;;;;;;;;;;17.57;44.18;100303.53;4962575;28;19928;-46
2021/12/03 15:07:20;;;;;;;;;;;;;;;17.58;44.07;100294.47;4963279;28;19973;-43
2021/12/03 15:09:47;;;;;;;;;;;;;;;17.59;44.26;100296.16;4966872;28;19942;-46
2021/12/03 15:12:47;;;;;;;;;;;;;;;17.59;44.08;100280.03;4968511;28;19922;-49
2021/12/03 15:28:01;;;;;;;;;;;;;;;17.63;44.03;100284.88;4964861;28;20437;-46
2021/12/03 15:33:28;;;;;;;;;;;;;;;17.66;44.19;100268.38;4964438;29;19978;-48
2021/12/03 15:36:04;;;;;;;;;;;;;;;17.65;44.11;100266.72;4964197;28;19927;-48
2021/12/03 15:55:09;;;;;;;;;;;;;;;17.46;44.36;100251.88;4964672;28;19946;-46
2021/12/03 15:57:56;;;;;;;;;;;;;;;17.44;44.41;100247.66;4959910;28;19922;-47
2021/12/03 16:08:25;;;;;;;;;;;;;;;17.41;44.49;100234.56;4970139;28;19934;-47
2021/12/03 16:11:10;;;;;;;;;;;;;;;17.39;44.59;100223.19;4965351;28;19929;-47
2021/12/03 16:19:14;;;;;;;;;;;;;;;17.37;44.50;100215.28;4972162;28;20000;-46
2021/12/03 16:22:02;;;;;;;;;;;;;;;17.37;44.60;100195.63;4961175;28;19915;-48
2021/12/03 16:46:28;;;;;;;;;;;;;;;17.31;44.56;100199.03;4914557;29;19926;-45
2021/12/03 16:51:34;;;;;;;;;;;;;;;17.31;44.67;100199.03;4921364;29;19990;-49
2021/12/03 16:54:09;;;;;;;;;;;;;;;17.31;44.77;100202.53;4914481;29;19919;-48
2021/12/03 16:56:35;;;;;;;;;;;;;;;17.30;45.01;100203.56;4913032;29;19933;-50
2021/12/03 16:59:01;;;;;;;;;;;;;;;17.31;44.74;100204.41;4923767;29;20032;-47
2021/12/03 17:20:45;;;;;;;;;;;;;;;17.31;45.29;100223.22;4922845;29;20369;-48
2021/12/03 17:49:53;;;;;;;;;;;;;;;17.31;45.83;100215.16;4870489;29;19920;-47
2021/12/03 17:59:45;;;;;;;;;;;;;;;17.30;46.16;100200.88;4920468;29;19923;-45
2021/12/03 18:07:18;;;;;;;;;;;;;;;17.31;46.09;100173.00;4964513;28;19923;-47
2021/12/03 18:10:17;;;;;;;;;;;;;;;17.30;46.10;100174.00;4967451;28;19925;-46
2021/12/03 18:55:36;;;;;;;;;;;;;;;17.24;46.25;100129.03;4967545;28;19919;-49
2021/12/03 18:58:03;;;;;;;;;;;;;;;17.23;46.11;100122.81;4974121;28;19915;-48
2021/12/03 19:00:31;;;;;;;;;;;;;;;17.23;46.05;100132.72;4958477;29;19923;-47
2021/12/03 19:02:57;;;;;;;;;;;;;;;17.22;46.21;100123.00;4967992;28;20020;-49
2021/12/03 19:05:53;;;;;;;;;;;;;;;17.21;46.15;100130.22;4967343;28;20540;-49
2021/12/03 19:08:30;;;;;;;;;;;;;;;17.21;46.14;100127.56;4967582;28;19929;-50
2021/12/03 19:11:03;;;;;;;;;;;;;;;17.20;46.01;100135.75;4968074;28;19918;-48
2021/12/03 19:13:34;;;;;;;;;;;;;;;17.20;46.24;100127.72;4971070;28;19974;-51
2021/12/03 19:16:02;;;;;;;;;;;;;;;17.20;46.15;100128.56;4967932;28;19991;-47
2021/12/03 19:18:27;;;;;;;;;;;;;;;17.19;46.01;100137.63;4969525;28;19918;-50
2021/12/03 19:20:52;;;;;;;;;;;;;;;17.19;46.07;100136.78;4966770;28;19914;-46
2021/12/03 19:23:17;;;;;;;;;;;;;;;17.18;46.04;100130.59;4976153;28;20505;-49
2021/12/03 19:25:42;;;;;;;;;;;;;;;17.18;46.05;100135.94;4966970;28;19914;-48
2021/12/03 19:28:08;;;;;;;;;;;;;;;17.19;46.00;100131.41;4972346;28;19918;-48
2021/12/03 19:30:33;;;;;;;;;;;;;;;17.19;46.24;100128.72;4965954;28;19918;-46
2021/12/03 19:32:58;;;;;;;;;;;;;;;17.18;46.20;100127.88;4967116;28;19921;-50
2021/12/03 19:35:25;;;;;;;;;;;;;;;17.18;45.98;100129.75;4966561;28;20510;-51
2021/12/03 19:37:53;;;;;;;;;;;;;;;17.18;45.97;100125.22;4966733;28;19915;-48
2021/12/03 19:40:18;;;;;;;;;;;;;;;17.19;46.03;100123.34;4971311;28;20418;-46
2021/12/03 19:43:10;;;;;;;;;;;;;;;17.18;46.02;100127.88;4967005;28;19914;-51